Terminal Aerodrome Forecast
Issued by NWS

Home | Current Version | Previous Version | Graphics & Text | Print | Product List | Glossary On
Versions: 1 2 3 4 5 6 7 8 9 10 11 12 13
367
FTUS42 KMHX 271720
TAFISO
TAF
KISO 271720Z 2718/2818 25006KT P6SM SCT050
     FM272100 22006KT P6SM VCTS SCT040CB
     FM280100 23006KT P6SM SCT050
      AMD LTD TO CLD VIS AND WIND=

USA.gov is the U.S. government's official web portal to all federal, state and local government web resources and services.